createdAt,value
2023-03-11T00:00:39.133Z,68.86
2023-03-11T00:03:24.913Z,69.21
2023-03-11T00:05:54.325Z,69.29
2023-03-11T00:08:24.336Z,69.46
2023-03-11T00:10:55.366Z,69.35
2023-03-11T00:13:23.982Z,69.74
2023-03-11T00:15:55.860Z,69.56
2023-03-11T00:18:28.208Z,69.57
2023-03-11T00:20:56.856Z,69.44
2023-03-11T00:23:26.350Z,69.42
2023-03-11T00:25:54.423Z,69.31
2023-03-11T00:28:25.377Z,69.45
2023-03-11T00:30:53.447Z,69.76
2023-03-11T00:33:21.512Z,69.75
2023-03-11T00:35:50.412Z,70.06
2023-03-11T00:38:18.619Z,70.33
2023-03-11T00:40:47.823Z,70.84
2023-03-11T00:43:16.763Z,71.39
2023-03-11T00:45:44.865Z,71.87
2023-03-11T00:48:13.959Z,71.60
2023-03-11T00:50:42.111Z,70.75
2023-03-11T00:53:10.714Z,70.64
2023-03-11T00:55:38.726Z,70.98
2023-03-11T00:58:10.301Z,71.82
2023-03-11T01:00:49.720Z,72.33
2023-03-11T01:03:17.538Z,72.72
2023-03-11T01:05:46.915Z,73.22
2023-03-11T01:08:14.695Z,73.96
2023-03-11T01:10:42.553Z,74.09
2023-03-11T01:13:10.488Z,74.52
2023-03-11T01:15:38.324Z,73.94
2023-03-11T01:18:07.052Z,73.96
2023-03-11T01:20:36.708Z,73.56
2023-03-11T01:23:06.505Z,73.65
2023-03-11T01:25:34.945Z,73.68
2023-03-11T01:28:02.786Z,73.70
2023-03-11T01:30:31.249Z,73.59
2023-03-11T01:32:59.044Z,73.65
2023-03-11T01:35:28.709Z,73.82
2023-03-11T01:37:57.628Z,73.76
2023-03-11T01:40:53.243Z,73.73
2023-03-11T01:43:41.259Z,73.21
2023-03-11T01:46:25.652Z,73.31
2023-03-11T01:48:57.398Z,73.42
2023-03-11T01:51:35.912Z,73.20
2023-03-11T01:54:08.262Z,73.27
2023-03-11T01:56:37.129Z,73.62
2023-03-11T01:59:06.207Z,73.65
2023-03-11T02:01:35.455Z,73.41
2023-03-11T02:04:04.404Z,73.45
2023-03-11T02:06:33.382Z,73.62
2023-03-11T02:09:01.715Z,73.85
2023-03-11T02:11:30.890Z,73.64
2023-03-11T02:14:03.749Z,73.76
2023-03-11T02:16:31.505Z,73.94
2023-03-11T02:19:01.850Z,73.99
2023-03-11T02:21:31.520Z,73.73
2023-03-11T02:24:12.597Z,73.61
2023-03-11T02:26:54.352Z,73.40
2023-03-11T02:29:23.281Z,73.50
2023-03-11T02:31:52.151Z,73.11
2023-03-11T02:34:30.201Z,72.74
2023-03-11T02:36:59.619Z,72.58
2023-03-11T02:39:34.462Z,72.24
2023-03-11T02:42:07.691Z,72.05
2023-03-11T02:44:35.802Z,71.16
2023-03-11T02:47:04.140Z,70.38
2023-03-11T02:49:32.924Z,70.08
2023-03-11T02:52:00.754Z,69.20
2023-03-11T02:54:29.475Z,68.47
2023-03-11T02:56:58.286Z,67.47
2023-03-11T02:59:27.911Z,66.84
2023-03-11T03:01:56.199Z,66.90
2023-03-11T03:04:24.440Z,67.42
2023-03-11T03:06:52.305Z,66.28
2023-03-11T03:09:20.095Z,66.02
2023-03-11T03:11:47.886Z,65.80
2023-03-11T03:14:15.744Z,65.74
2023-03-11T03:16:44.506Z,66.28
2023-03-11T03:19:12.408Z,66.75
2023-03-11T03:21:41.240Z,66.75
2023-03-11T03:24:09.206Z,67.48
2023-03-11T03:26:37.535Z,67.46
2023-03-11T03:29:05.736Z,67.36
2023-03-11T03:31:33.659Z,66.19
2023-03-11T03:34:01.763Z,66.49
2023-03-11T03:36:29.652Z,66.42
2023-03-11T03:39:02.429Z,66.07
2023-03-11T03:41:32.992Z,65.28
2023-03-11T03:44:02.157Z,65.06
2023-03-11T03:46:30.853Z,65.16
2023-03-11T03:48:59.359Z,65.49
2023-03-11T03:51:28.037Z,65.35
2023-03-11T03:54:01.496Z,65.44
2023-03-11T03:56:29.540Z,65.58
2023-03-11T03:58:57.792Z,66.02
2023-03-11T04:01:27.429Z,65.98
2023-03-11T04:03:57.707Z,66.05
2023-03-11T04:06:26.977Z,66.72
2023-03-11T04:09:06.103Z,67.13
2023-03-11T04:11:35.660Z,67.52
2023-03-11T04:14:04.821Z,67.64
2023-03-11T04:16:34.036Z,67.55
2023-03-11T04:19:08.700Z,67.66
2023-03-11T04:21:38.126Z,67.83
2023-03-11T04:24:07.452Z,68.19
2023-03-11T04:26:37.296Z,68.32
2023-03-11T04:29:06.679Z,68.34
2023-03-11T04:31:38.725Z,68.01
2023-03-11T04:34:07.386Z,68.50
2023-03-11T04:36:36.590Z,68.53
2023-03-11T04:39:04.974Z,68.56
2023-03-11T04:41:35.233Z,68.82
2023-03-11T04:44:03.202Z,69.01
2023-03-11T04:46:31.157Z,69.45
2023-03-11T04:48:59.957Z,69.61
2023-03-11T04:51:28.185Z,69.86
2023-03-11T04:53:56.389Z,69.98
2023-03-11T04:56:24.745Z,70.51
2023-03-11T04:58:53.030Z,71.02
2023-03-11T05:01:22.270Z,71.33
2023-03-11T05:03:50.233Z,71.60
2023-03-11T05:06:18.137Z,72.08
2023-03-11T05:08:46.015Z,72.54
2023-03-11T05:11:14.296Z,72.76
2023-03-11T05:13:43.215Z,73.25
2023-03-11T05:16:12.051Z,73.70
2023-03-11T05:18:40.289Z,73.78
2023-03-11T05:21:09.234Z,74.33
2023-03-11T05:23:37.182Z,74.66
2023-03-11T05:26:05.718Z,75.05
2023-03-11T05:28:33.853Z,75.07
2023-03-11T05:31:01.757Z,75.25
2023-03-11T05:33:35.459Z,75.09
2023-03-11T05:36:09.320Z,75.07
2023-03-11T05:38:38.170Z,74.96
2023-03-11T05:41:06.489Z,75.12
2023-03-11T05:43:35.353Z,75.22
2023-03-11T05:46:37.415Z,75.36
2023-03-11T05:49:07.087Z,75.71
2023-03-11T05:51:39.790Z,75.92
2023-03-11T05:54:15.255Z,75.97
2023-03-11T05:56:46.454Z,75.80
2023-03-11T05:59:16.604Z,76.46
2023-03-11T06:01:46.379Z,76.78
2023-03-11T06:04:14.596Z,76.50
2023-03-11T06:06:42.856Z,76.36
2023-03-11T06:09:14.958Z,76.18
2023-03-11T06:11:43.060Z,76.29
2023-03-11T06:14:13.566Z,76.41
2023-03-11T06:16:42.611Z,76.48
2023-03-11T06:19:11.057Z,76.33
2023-03-11T06:21:42.491Z,76.12
2023-03-11T06:24:10.586Z,75.80
2023-03-11T06:26:38.813Z,75.71
2023-03-11T06:29:11.827Z,76.01
2023-03-11T06:31:40.121Z,75.98
2023-03-11T06:34:11.416Z,76.02
2023-03-11T06:36:39.472Z,76.16
2023-03-11T06:39:07.538Z,76.16
2023-03-11T06:41:36.117Z,76.09
2023-03-11T06:44:05.156Z,76.08
2023-03-11T06:46:33.525Z,76.13
2023-03-11T06:49:01.361Z,76.04
2023-03-11T06:51:29.723Z,75.89
2023-03-11T06:53:57.756Z,75.69
2023-03-11T06:56:26.409Z,75.80
2023-03-11T06:58:58.219Z,75.92
2023-03-11T07:01:28.795Z,75.87
2023-03-11T07:03:57.838Z,75.69
2023-03-11T07:06:27.852Z,75.52
2023-03-11T07:09:09.127Z,75.66
2023-03-11T07:11:40.026Z,75.63
2023-03-11T07:14:11.178Z,75.91
2023-03-11T07:16:42.661Z,76.01
2023-03-11T07:19:17.754Z,76.07
2023-03-11T07:21:46.103Z,75.84
2023-03-11T07:24:16.893Z,75.78
2023-03-11T07:26:44.757Z,76.50
2023-03-11T07:29:12.629Z,76.56
2023-03-11T07:31:41.448Z,76.54
2023-03-11T07:34:12.463Z,76.45
2023-03-11T07:36:42.095Z,76.06
2023-03-11T07:39:16.078Z,75.88
2023-03-11T07:41:44.405Z,75.63
2023-03-11T07:44:13.705Z,75.84
2023-03-11T07:46:42.554Z,75.64
2023-03-11T07:49:10.441Z,75.47
2023-03-11T07:51:40.960Z,75.53
2023-03-11T07:54:11.092Z,75.62
2023-03-11T07:56:39.194Z,75.61
2023-03-11T07:59:06.959Z,75.47
2023-03-11T08:01:40.691Z,75.57
2023-03-11T08:04:14.203Z,75.48
2023-03-11T08:06:45.305Z,75.33
2023-03-11T08:09:13.588Z,75.29
2023-03-11T08:11:41.766Z,75.38
2023-03-11T08:14:10.217Z,75.14
2023-03-11T08:16:39.998Z,75.21
2023-03-11T08:19:07.967Z,75.32
2023-03-11T08:21:36.175Z,75.21
2023-03-11T08:24:06.756Z,75.05
2023-03-11T08:26:35.145Z,74.79
2023-03-11T08:29:03.565Z,74.71
2023-03-11T08:31:32.814Z,74.49
2023-03-11T08:34:03.822Z,74.74
2023-03-11T08:36:32.667Z,74.67
2023-03-11T08:39:00.936Z,74.77
2023-03-11T08:41:29.454Z,74.27
2023-03-11T08:43:57.491Z,74.34
2023-03-11T08:46:28.107Z,74.31
2023-03-11T08:48:58.622Z,74.35
2023-03-11T08:51:27.667Z,74.10
2023-03-11T08:53:56.315Z,74.10
2023-03-11T08:56:24.404Z,74.03
2023-03-11T08:58:52.800Z,74.50
2023-03-11T14:02:37.462Z,53.97
2023-03-11T14:05:07.196Z,55.00
2023-03-11T14:07:37.591Z,55.35
2023-03-11T14:10:25.209Z,54.13
2023-03-11T14:13:24.895Z,53.74
2023-03-11T14:15:54.201Z,53.54
2023-03-11T14:18:27.555Z,54.11
2023-03-11T14:20:56.045Z,54.28
2023-03-11T14:23:28.626Z,54.18
2023-03-11T14:26:03.059Z,54.86
2023-03-11T14:28:34.284Z,55.03
2023-03-11T14:31:04.282Z,54.73
2023-03-11T14:33:32.285Z,54.75
2023-03-11T14:36:04.565Z,54.86
2023-03-11T14:38:33.501Z,54.11
2023-03-11T14:41:05.042Z,53.47
2023-03-11T14:43:35.575Z,52.75
2023-03-11T14:46:04.978Z,52.30
2023-03-11T14:48:41.712Z,49.29
2023-03-11T14:51:19.069Z,47.85
2023-03-11T14:53:53.819Z,46.94
2023-03-11T14:56:24.899Z,46.41
2023-03-11T14:59:07.003Z,44.67
2023-03-11T15:01:40.976Z,43.22
2023-03-11T15:04:12.752Z,43.57
2023-03-11T15:06:45.313Z,44.70
2023-03-11T15:09:13.228Z,45.74
2023-03-11T15:11:59.291Z,45.51
2023-03-11T15:14:39.368Z,45.98
2023-03-11T15:17:33.070Z,46.01
2023-03-11T15:20:02.279Z,46.10
2023-03-11T15:22:36.568Z,46.91
2023-03-11T15:25:18.218Z,47.59
2023-03-11T15:27:46.789Z,48.08
2023-03-11T15:30:50.856Z,48.19
2023-03-11T15:33:29.348Z,48.35
2023-03-11T15:35:57.423Z,48.86
2023-03-11T15:38:28.451Z,49.14
2023-03-11T15:40:59.123Z,47.11
2023-03-11T15:43:32.394Z,45.71
2023-03-11T15:46:02.563Z,45.97
2023-03-11T15:48:31.364Z,46.24
2023-03-11T15:51:00.359Z,45.83
2023-03-11T15:53:29.357Z,45.92
2023-03-11T15:56:06.531Z,45.98
2023-03-11T15:58:36.706Z,46.25
2023-03-11T16:01:04.775Z,46.83
2023-03-11T16:03:33.119Z,47.61
2023-03-11T16:06:01.074Z,47.89
2023-03-11T16:08:28.902Z,48.34
2023-03-11T16:10:58.088Z,48.90
2023-03-11T16:13:26.157Z,49.21
2023-03-11T16:15:55.067Z,49.74
2023-03-11T16:18:24.093Z,49.59
2023-03-11T16:20:53.363Z,49.82
2023-03-11T16:23:23.971Z,49.86
2023-03-11T16:25:55.246Z,49.56
2023-03-11T16:28:25.755Z,50.13
2023-03-11T16:30:53.561Z,50.51
2023-03-11T16:33:21.787Z,50.20
2023-03-11T16:35:50.013Z,50.51
2023-03-11T16:38:19.579Z,49.91
2023-03-11T16:40:59.446Z,49.59
2023-03-11T16:43:31.202Z,50.05
2023-03-11T16:45:59.336Z,50.44
2023-03-11T16:48:27.277Z,50.70
2023-03-11T16:50:55.738Z,51.04
2023-03-11T16:53:25.213Z,50.72
2023-03-11T16:55:53.898Z,50.51
2023-03-11T16:58:24.326Z,50.89
2023-03-11T17:00:52.622Z,50.80
2023-03-11T17:03:21.911Z,51.19
2023-03-11T17:05:51.116Z,51.25
2023-03-11T17:08:20.295Z,51.53
2023-03-11T17:10:49.832Z,51.97
2023-03-11T17:13:19.228Z,51.87
2023-03-11T17:15:57.750Z,52.20
2023-03-11T17:18:26.160Z,52.85
2023-03-11T17:20:54.975Z,55.23
2023-03-11T17:23:23.704Z,56.41
2023-03-11T17:25:51.942Z,57.68
2023-03-11T17:28:20.214Z,58.80
2023-03-11T17:30:48.635Z,59.65
2023-03-11T17:33:16.379Z,59.91
2023-03-11T17:35:44.787Z,61.21
2023-03-11T17:38:14.723Z,61.57
2023-03-11T17:40:44.854Z,61.86
2023-03-11T17:43:12.774Z,62.73
2023-03-11T17:45:41.016Z,63.84
2023-03-11T17:48:09.898Z,63.51
2023-03-11T17:50:41.396Z,63.37
2023-03-11T17:53:09.420Z,63.29
2023-03-11T17:55:42.002Z,62.73
2023-03-11T17:58:09.966Z,61.96
2023-03-11T18:00:38.418Z,61.73
2023-03-11T18:03:06.579Z,61.54
2023-03-11T18:05:37.018Z,61.48
2023-03-11T18:08:07.966Z,61.63
2023-03-11T18:10:36.588Z,62.10
2023-03-11T18:13:04.715Z,62.44
2023-03-11T18:15:32.554Z,62.77
2023-03-11T18:18:01.266Z,63.12
2023-03-11T18:20:29.299Z,63.26
2023-03-11T18:22:57.075Z,63.69
2023-03-11T18:25:24.889Z,64.19
2023-03-11T18:27:52.647Z,64.67
2023-03-11T18:30:20.647Z,65.04
2023-03-11T18:32:49.475Z,65.55
2023-03-11T18:35:18.732Z,65.81
2023-03-11T18:37:46.701Z,66.04
2023-03-11T18:40:15.664Z,66.32
2023-03-11T18:42:43.709Z,66.53
2023-03-11T18:45:12.499Z,66.53
2023-03-11T18:47:42.240Z,66.98
2023-03-11T18:50:11.070Z,67.50
2023-03-11T18:52:39.408Z,67.52
2023-03-11T18:55:07.758Z,67.43
2023-03-11T18:57:35.790Z,67.44
2023-03-11T19:00:04.337Z,67.22
2023-03-11T19:02:32.223Z,67.38
2023-03-11T19:05:00.015Z,67.22
2023-03-11T19:07:28.985Z,67.43
2023-03-11T19:09:57.037Z,67.52
2023-03-11T19:12:29.174Z,67.30
2023-03-11T19:14:57.118Z,67.24
2023-03-11T19:17:24.942Z,67.09
2023-03-11T19:19:53.069Z,67.12
2023-03-11T19:22:20.984Z,67.15
2023-03-11T19:24:48.769Z,67.26
2023-03-11T19:27:16.529Z,67.39
2023-03-11T19:29:44.331Z,67.45
2023-03-11T19:32:12.196Z,67.43
2023-03-11T19:34:40.613Z,67.40
2023-03-11T19:37:08.473Z,67.54
2023-03-11T19:39:36.342Z,67.20
2023-03-11T19:42:04.388Z,67.08
2023-03-11T19:44:32.235Z,66.79
2023-03-11T19:47:00.081Z,66.45
2023-03-11T19:49:28.067Z,66.44
2023-03-11T19:51:56.210Z,66.49
2023-03-11T19:54:24.266Z,66.23
2023-03-11T19:56:52.063Z,66.07
2023-03-11T19:59:19.914Z,66.02
2023-03-11T20:01:49.689Z,66.06
2023-03-11T20:04:17.667Z,65.85
2023-03-11T20:06:45.757Z,65.73
2023-03-11T20:09:15.700Z,65.73
2023-03-11T20:11:45.751Z,65.52
2023-03-11T20:14:14.380Z,65.22
2023-03-11T20:16:42.350Z,65.04
2023-03-11T20:19:10.461Z,64.95
2023-03-11T20:21:40.821Z,65.21
2023-03-11T20:24:10.763Z,65.20
2023-03-11T20:26:39.075Z,65.34
2023-03-11T20:29:07.538Z,65.52
2023-03-11T20:31:36.694Z,65.51
2023-03-11T20:34:05.047Z,65.60
2023-03-11T20:36:34.168Z,65.73
2023-03-11T20:39:03.679Z,65.91
2023-03-11T20:41:37.699Z,65.86
2023-03-11T20:44:08.150Z,65.71
2023-03-11T20:46:36.345Z,65.60
2023-03-11T20:49:05.457Z,65.46
2023-03-11T20:51:33.755Z,65.59
2023-03-11T20:54:01.721Z,65.53
2023-03-11T20:56:29.819Z,65.64
2023-03-11T20:58:59.407Z,65.73
2023-03-11T21:01:30.087Z,65.72
2023-03-11T21:04:00.590Z,65.76
2023-03-11T21:06:33.774Z,65.58
2023-03-11T21:09:08.125Z,65.46
2023-03-11T21:11:36.256Z,65.50
2023-03-11T21:14:04.985Z,65.47
2023-03-11T21:16:33.456Z,65.34
2023-03-11T21:19:05.345Z,65.34
2023-03-11T21:21:33.648Z,65.43
2023-03-11T21:24:01.803Z,65.18
2023-03-11T21:26:30.091Z,65.10
2023-03-11T21:28:58.060Z,64.97
2023-03-11T21:31:28.929Z,65.12
2023-03-11T21:33:59.063Z,65.05
2023-03-11T21:36:27.872Z,65.09
2023-03-11T21:38:55.893Z,65.16
2023-03-11T21:41:25.512Z,65.15
2023-03-11T21:43:55.495Z,65.41
2023-03-11T21:46:26.426Z,65.25
2023-03-11T21:48:55.017Z,64.98
2023-03-11T21:51:23.304Z,64.78
2023-03-11T21:53:51.497Z,64.81
2023-03-11T21:56:19.669Z,64.48
2023-03-11T21:58:49.792Z,64.54
2023-03-11T22:01:17.803Z,64.72
2023-03-11T22:03:47.317Z,64.61
2023-03-11T22:06:15.749Z,65.04
2023-03-11T22:08:43.934Z,65.12
2023-03-11T22:11:19.053Z,65.28
2023-03-11T22:13:49.220Z,65.78
2023-03-11T22:16:18.643Z,65.63
2023-03-11T22:18:47.086Z,65.89
2023-03-11T22:21:16.406Z,65.71
2023-03-11T22:23:45.055Z,66.00
2023-03-11T22:26:13.848Z,65.96
2023-03-11T22:28:41.672Z,65.86
2023-03-11T22:31:11.910Z,65.92
2023-03-11T22:33:40.324Z,65.91
2023-03-11T22:36:09.550Z,65.79
2023-03-11T22:38:40.640Z,65.83
2023-03-11T22:41:09.762Z,65.74
2023-03-11T22:43:38.278Z,65.52
2023-03-11T22:46:06.151Z,65.61
2023-03-11T22:48:34.464Z,65.54
2023-03-11T22:51:02.527Z,65.02
2023-03-11T22:53:30.315Z,64.98
2023-03-11T22:55:58.225Z,64.79
2023-03-11T22:58:25.996Z,64.99
2023-03-11T23:00:53.764Z,65.22
2023-03-11T23:03:21.734Z,65.24
2023-03-11T23:05:49.684Z,65.44
2023-03-11T23:08:17.653Z,65.37
2023-03-11T23:10:46.876Z,65.50
2023-03-11T23:13:15.041Z,65.65
2023-03-11T23:15:46.979Z,65.39
2023-03-11T23:18:16.380Z,65.05
2023-03-11T23:20:44.669Z,64.96
2023-03-11T23:23:13.429Z,64.61
2023-03-11T23:25:41.539Z,64.74
2023-03-11T23:28:09.474Z,64.60
2023-03-11T23:30:37.585Z,64.36
2023-03-11T23:33:05.461Z,64.48
2023-03-11T23:35:33.922Z,64.52
2023-03-11T23:38:01.676Z,64.29
2023-03-11T23:40:29.510Z,64.20
2023-03-11T23:42:57.432Z,64.13
2023-03-11T23:45:25.200Z,63.86
2023-03-11T23:47:52.972Z,63.83
2023-03-11T23:50:20.723Z,63.82
2023-03-11T23:52:48.482Z,63.64
2023-03-11T23:55:16.570Z,63.46
2023-03-11T23:57:44.343Z,63.38
